Jaca, Aragón

latitud = 42° 34' 44''N | longitud = 000° 32' 49''W
823 metros sobre el nivel del mar | datos mensuales

Fecha, hora, temperatura, viento dirección y velocidad, humedad y presión.

  • 25-09-2017 00:00:00 | 14.60°C | Nordeste |8.00 km/h | 58.00% | 0.00 hPa
  • 24-09-2017 23:00:00 | 15.00°C | Nordeste |12.00 km/h | 58.00% | 0.00 hPa
  • 24-09-2017 22:00:00 | 15.30°C | Nordeste |15.00 km/h | 59.00% | 0.00 hPa
  • 24-09-2017 21:00:00 | 17.40°C | Nordeste |13.00 km/h | 52.00% | 0.00 hPa
  • 24-09-2017 20:00:00 | 20.90°C | Calma |0.00 km/h | 44.00% | 0.00 hPa
  • 24-09-2017 19:00:00 | 23.00°C | Noroeste |4.00 km/h | 40.00% | 0.00 hPa
  • 24-09-2017 18:00:00 | 24.50°C | Noroeste |6.00 km/h | 38.00% | 0.00 hPa
  • 24-09-2017 17:00:00 | 24.90°C | Noroeste |11.00 km/h | 36.00% | 0.00 hPa
  • 24-09-2017 16:00:00 | 26.10°C | Oeste |5.00 km/h | 36.00% | 0.00 hPa
  • 24-09-2017 15:00:00 | 25.40°C | Oeste |7.00 km/h | 38.00% | 0.00 hPa
  • 24-09-2017 14:00:00 | 24.00°C | Noroeste |6.00 km/h | 43.00% | 0.00 hPa
  • 24-09-2017 13:00:00 | 22.50°C | Noroeste |7.00 km/h | 47.00% | 0.00 hPa
  • 24-09-2017 12:00:00 | 21.50°C | Calma |0.00 km/h | 51.00% | 0.00 hPa
  • 24-09-2017 11:00:00 | 17.90°C | Sudeste |4.00 km/h | 61.00% | 0.00 hPa
  • 24-09-2017 10:00:00 | 13.40°C | Este |2.00 km/h | 76.00% | 0.00 hPa
  • 24-09-2017 09:00:00 | 10.30°C | Nordeste |2.00 km/h | 87.00% | 0.00 hPa
  • 24-09-2017 08:00:00 | 9.80°C | Nordeste |7.00 km/h | 89.00% | 0.00 hPa
  • 24-09-2017 07:00:00 | 9.40°C | Nordeste |8.00 km/h | 92.00% | 0.00 hPa
  • 24-09-2017 06:00:00 | 9.30°C | Nordeste |8.00 km/h | 87.00% | 0.00 hPa
  • 24-09-2017 05:00:00 | 9.80°C | Nordeste |6.00 km/h | 89.00% | 0.00 hPa
  • 24-09-2017 04:00:00 | 9.90°C | Nordeste |2.00 km/h | 85.00% | 0.00 hPa
  • 24-09-2017 03:00:00 | 10.60°C | Nordeste |12.00 km/h | 83.00% | 0.00 hPa
  • 24-09-2017 02:00:00 | 11.40°C | Nordeste |9.00 km/h | 79.00% | 0.00 hPa
  • 24-09-2017 01:00:00 | 11.60°C | Nordeste |8.00 km/h | 78.00% | 0.00 hPa